KBLH/BLH METAR and TAF weather

Enter ICAO airport designator
Station Type Date Time Source
KBLH METAR 2022/06/28 08:52 UTC NOAA

KBLH 280852Z AUTO 17009KT 10SM CLR 33/18 A2989 RMK AO2 SLP114 T03330178 50000 TSNO


Station Type Date Time Source
KBLH Decoded METAR 2022/06/28 08:52 UTC NOAA

BLYTHE AIRPORT, CA, United States (KBLH) 33-37N 114-43W 119M
Jun 28, 2022 - 04:52 AM EDT / 2022.06.28 0852 UTC
Wind: from the S (170 degrees) at 10 MPH (9 KT):0
Visibility: 10 mile(s):0
Sky conditions: clear
Temperature: 91.9 F (33.3 C)
Dew Point: 64.0 F (17.8 C)
Relative Humidity: 39%
Pressure (altimeter): 29.89 in. Hg (1012 hPa)
Pressure tendency: 0.00 inches (0.0 hPa) higher than three hours ago
ob: KBLH 280852Z AUTO 17009KT 10SM CLR 33/18 A2989 RMK AO2 SLP114 T03330178 50000 TSNO
cycle: 9

Station Type Date Time Source
KBLH TAF 2022/06/28 06:33 UTC NOAA

TAF KBLH 280531Z 2806/2906 21007KT P6SM SKC
FM281200 VRB04KT P6SM SKC
FM282200 17008G18KT P6SM SKC
FM282300 20012G22KT P6SM FEW120 FEW250

Example: see airport list